sensor_id;sensor_type;location;lat;lon;timestamp;pressure;altitude;pressure_sealevel;temperature
67822;BMP180;54434;50.096;20.082;2023-12-29T00:01:04;98806.00;;;4.90
67822;BMP180;54434;50.096;20.082;2023-12-29T00:03:47;98821.00;;;4.94
67822;BMP180;54434;50.096;20.082;2023-12-29T00:06:23;98821.00;;;5.00
67822;BMP180;54434;50.096;20.082;2023-12-29T00:09:00;98824.60;;;4.92
67822;BMP180;54434;50.096;20.082;2023-12-29T00:11:37;98829.60;;;4.90
67822;BMP180;54434;50.096;20.082;2023-12-29T00:14:14;98826.20;;;4.90
67822;BMP180;54434;50.096;20.082;2023-12-29T00:16:51;98821.20;;;4.90
67822;BMP180;54434;50.096;20.082;2023-12-29T00:19:27;98818.20;;;4.90
67822;BMP180;54434;50.096;20.082;2023-12-29T00:22:04;98812.00;;;4.90
67822;BMP180;54434;50.096;20.082;2023-12-29T00:24:41;98813.80;;;4.92
67822;BMP180;54434;50.096;20.082;2023-12-29T00:27:18;98814.80;;;4.90
67822;BMP180;54434;50.096;20.082;2023-12-29T00:29:55;98814.60;;;4.90
67822;BMP180;54434;50.096;20.082;2023-12-29T00:32:31;98813.40;;;4.90
67822;BMP180;54434;50.096;20.082;2023-12-29T00:35:10;98811.40;;;4.90
67822;BMP180;54434;50.096;20.082;2023-12-29T00:37:46;98807.00;;;4.90
67822;BMP180;54434;50.096;20.082;2023-12-29T00:40:22;98804.00;;;4.90
67822;BMP180;54434;50.096;20.082;2023-12-29T00:42:59;98805.00;;;4.94
67822;BMP180;54434;50.096;20.082;2023-12-29T00:45:35;98799.20;;;4.98
67822;BMP180;54434;50.096;20.082;2023-12-29T00:48:12;98803.40;;;5.00
67822;BMP180;54434;50.096;20.082;2023-12-29T00:50:49;98795.00;;;5.00
67822;BMP180;54434;50.096;20.082;2023-12-29T00:53:26;98797.60;;;5.00
67822;BMP180;54434;50.096;20.082;2023-12-29T00:56:07;98795.60;;;5.00
67822;BMP180;54434;50.096;20.082;2023-12-29T00:58:46;98790.60;;;5.00
67822;BMP180;54434;50.096;20.082;2023-12-29T01:01:23;98789.60;;;5.02
67822;BMP180;54434;50.096;20.082;2023-12-29T01:03:59;98788.20;;;5.10
67822;BMP180;54434;50.096;20.082;2023-12-29T01:06:36;98782.60;;;5.10
67822;BMP180;54434;50.096;20.082;2023-12-29T01:09:12;98781.60;;;5.10
67822;BMP180;54434;50.096;20.082;2023-12-29T01:11:49;98777.80;;;5.10
67822;BMP180;54434;50.096;20.082;2023-12-29T01:14:25;98776.80;;;5.10
67822;BMP180;54434;50.096;20.082;2023-12-29T01:17:03;98784.00;;;5.10
67822;BMP180;54434;50.096;20.082;2023-12-29T01:19:40;98783.20;;;5.10
67822;BMP180;54434;50.096;20.082;2023-12-29T01:22:18;98772.00;;;5.10
67822;BMP180;54434;50.096;20.082;2023-12-29T01:24:55;98772.20;;;5.18
67822;BMP180;54434;50.096;20.082;2023-12-29T01:27:34;98775.00;;;5.20
67822;BMP180;54434;50.096;20.082;2023-12-29T01:30:12;98781.00;;;5.20
67822;BMP180;54434;50.096;20.082;2023-12-29T01:32:49;98776.20;;;5.20
67822;BMP180;54434;50.096;20.082;2023-12-29T01:35:25;98765.00;;;5.20
67822;BMP180;54434;50.096;20.082;2023-12-29T01:38:03;98757.60;;;5.20
67822;BMP180;54434;50.096;20.082;2023-12-29T01:40:48;98753.60;;;5.20
67822;BMP180;54434;50.096;20.082;2023-12-29T01:43:26;98749.40;;;5.20
67822;BMP180;54434;50.096;20.082;2023-12-29T01:46:03;98750.80;;;5.20
67822;BMP180;54434;50.096;20.082;2023-12-29T01:48:39;98751.40;;;5.18
67822;BMP180;54434;50.096;20.082;2023-12-29T01:51:17;98750.80;;;5.10
67822;BMP180;54434;50.096;20.082;2023-12-29T01:53:56;98751.80;;;5.08
67822;BMP180;54434;50.096;20.082;2023-12-29T01:56:33;98754.80;;;5.00
67822;BMP180;54434;50.096;20.082;2023-12-29T01:59:10;98754.80;;;4.92
67822;BMP180;54434;50.096;20.082;2023-12-29T02:01:59;98741.20;;;4.86
67822;BMP180;54434;50.096;20.082;2023-12-29T02:04:36;98736.20;;;4.80
67822;BMP180;54434;50.096;20.082;2023-12-29T02:07:13;98735.80;;;4.80
67822;BMP180;54434;50.096;20.082;2023-12-29T02:09:50;98728.60;;;4.70
67822;BMP180;54434;50.096;20.082;2023-12-29T02:12:27;98719.00;;;4.70
67822;BMP180;54434;50.096;20.082;2023-12-29T02:15:04;98723.00;;;4.68
67822;BMP180;54434;50.096;20.082;2023-12-29T02:17:47;98715.40;;;4.60
67822;BMP180;54434;50.096;20.082;2023-12-29T02:20:27;98703.60;;;4.60
67822;BMP180;54434;50.096;20.082;2023-12-29T02:23:04;98699.60;;;4.60
67822;BMP180;54434;50.096;20.082;2023-12-29T02:25:40;98701.00;;;4.60
67822;BMP180;54434;50.096;20.082;2023-12-29T02:28:26;98700.80;;;4.60
67822;BMP180;54434;50.096;20.082;2023-12-29T02:31:12;98704.00;;;4.60
67822;BMP180;54434;50.096;20.082;2023-12-29T02:33:53;98699.20;;;4.60
67822;BMP180;54434;50.096;20.082;2023-12-29T02:36:31;98695.80;;;4.60
67822;BMP180;54434;50.096;20.082;2023-12-29T02:39:07;98697.00;;;4.60
67822;BMP180;54434;50.096;20.082;2023-12-29T02:41:45;98696.00;;;4.60
67822;BMP180;54434;50.096;20.082;2023-12-29T02:44:21;98692.20;;;4.52
67822;BMP180;54434;50.096;20.082;2023-12-29T02:46:57;98688.80;;;4.50
67822;BMP180;54434;50.096;20.082;2023-12-29T02:49:34;98685.20;;;4.50
67822;BMP180;54434;50.096;20.082;2023-12-29T02:52:11;98682.20;;;4.50
67822;BMP180;54434;50.096;20.082;2023-12-29T02:54:48;98683.60;;;4.40
67822;BMP180;54434;50.096;20.082;2023-12-29T02:57:25;98683.60;;;4.40
67822;BMP180;54434;50.096;20.082;2023-12-29T03:00:03;98678.80;;;4.30
67822;BMP180;54434;50.096;20.082;2023-12-29T03:02:40;98679.20;;;4.30
67822;BMP180;54434;50.096;20.082;2023-12-29T03:05:17;98679.40;;;4.20
67822;BMP180;54434;50.096;20.082;2023-12-29T03:07:53;98674.80;;;4.20
67822;BMP180;54434;50.096;20.082;2023-12-29T03:10:30;98689.80;;;4.12
67822;BMP180;54434;50.096;20.082;2023-12-29T03:13:07;98682.60;;;4.10
67822;BMP180;54434;50.096;20.082;2023-12-29T03:15:44;98679.20;;;4.10
67822;BMP180;54434;50.096;20.082;2023-12-29T03:18:22;98673.80;;;4.00
67822;BMP180;54434;50.096;20.082;2023-12-29T03:20:58;98679.40;;;4.00
67822;BMP180;54434;50.096;20.082;2023-12-29T03:23:35;98671.60;;;3.90
67822;BMP180;54434;50.096;20.082;2023-12-29T03:26:11;98670.80;;;3.84
67822;BMP180;54434;50.096;20.082;2023-12-29T03:28:47;98662.40;;;3.80
67822;BMP180;54434;50.096;20.082;2023-12-29T03:31:24;98662.60;;;3.80
67822;BMP180;54434;50.096;20.082;2023-12-29T03:34:00;98669.40;;;3.80
67822;BMP180;54434;50.096;20.082;2023-12-29T03:36:37;98663.40;;;3.80
67822;BMP180;54434;50.096;20.082;2023-12-29T03:39:13;98663.60;;;3.70
67822;BMP180;54434;50.096;20.082;2023-12-29T03:41:49;98652.80;;;3.70
67822;BMP180;54434;50.096;20.082;2023-12-29T03:44:26;98644.20;;;3.70
67822;BMP180;54434;50.096;20.082;2023-12-29T03:47:02;98644.20;;;3.60
67822;BMP180;54434;50.096;20.082;2023-12-29T03:49:39;98649.20;;;3.60
67822;BMP180;54434;50.096;20.082;2023-12-29T03:52:16;98640.60;;;3.50
67822;BMP180;54434;50.096;20.082;2023-12-29T03:54:52;98639.00;;;3.50
67822;BMP180;54434;50.096;20.082;2023-12-29T03:57:28;98639.80;;;3.40
67822;BMP180;54434;50.096;20.082;2023-12-29T04:00:10;98640.40;;;3.40
67822;BMP180;54434;50.096;20.082;2023-12-29T04:02:47;98634.40;;;3.30
67822;BMP180;54434;50.096;20.082;2023-12-29T04:05:24;98629.00;;;3.30
67822;BMP180;54434;50.096;20.082;2023-12-29T04:08:02;98633.00;;;3.20
67822;BMP180;54434;50.096;20.082;2023-12-29T04:10:41;98633.60;;;3.20
67822;BMP180;54434;50.096;20.082;2023-12-29T04:13:18;98627.20;;;3.10
67822;BMP180;54434;50.096;20.082;2023-12-29T04:15:54;98630.00;;;3.08
67822;BMP180;54434;50.096;20.082;2023-12-29T04:18:31;98622.20;;;3.00
67822;BMP180;54434;50.096;20.082;2023-12-29T04:21:12;98619.00;;;2.90
67822;BMP180;54434;50.096;20.082;2023-12-29T04:23:49;98619.40;;;2.90
67822;BMP180;54434;50.096;20.082;2023-12-29T04:26:25;98617.00;;;2.80
67822;BMP180;54434;50.096;20.082;2023-12-29T04:29:02;98615.40;;;2.80
67822;BMP180;54434;50.096;20.082;2023-12-29T04:31:38;98615.20;;;2.70
67822;BMP180;54434;50.096;20.082;2023-12-29T04:34:14;98619.20;;;2.70
67822;BMP180;54434;50.096;20.082;2023-12-29T04:36:51;98622.60;;;2.60
67822;BMP180;54434;50.096;20.082;2023-12-29T04:39:27;98615.80;;;2.60
67822;BMP180;54434;50.096;20.082;2023-12-29T04:42:05;98616.40;;;2.50
67822;BMP180;54434;50.096;20.082;2023-12-29T04:44:42;98613.20;;;2.50
67822;BMP180;54434;50.096;20.082;2023-12-29T04:47:18;98614.80;;;2.40
67822;BMP180;54434;50.096;20.082;2023-12-29T04:49:54;98611.40;;;2.40
67822;BMP180;54434;50.096;20.082;2023-12-29T04:52:31;98605.00;;;2.30
67822;BMP180;54434;50.096;20.082;2023-12-29T04:55:09;98597.80;;;2.30
67822;BMP180;54434;50.096;20.082;2023-12-29T04:57:46;98605.40;;;2.20
67822;BMP180;54434;50.096;20.082;2023-12-29T05:00:23;98604.80;;;2.20
67822;BMP180;54434;50.096;20.082;2023-12-29T05:03:00;98604.80;;;2.10
67822;BMP180;54434;50.096;20.082;2023-12-29T05:05:37;98604.80;;;2.10
67822;BMP180;54434;50.096;20.082;2023-12-29T05:08:13;98603.60;;;2.10
67822;BMP180;54434;50.096;20.082;2023-12-29T05:10:50;98605.00;;;2.10
67822;BMP180;54434;50.096;20.082;2023-12-29T05:13:26;98607.80;;;2.14
67822;BMP180;54434;50.096;20.082;2023-12-29T05:16:03;98607.40;;;2.20
67822;BMP180;54434;50.096;20.082;2023-12-29T05:18:40;98603.00;;;2.26
67822;BMP180;54434;50.096;20.082;2023-12-29T05:21:20;98607.20;;;2.40
67822;BMP180;54434;50.096;20.082;2023-12-29T05:23:59;98604.20;;;2.50
67822;BMP180;54434;50.096;20.082;2023-12-29T05:26:35;98610.80;;;2.60
67822;BMP180;54434;50.096;20.082;2023-12-29T05:29:12;98608.00;;;2.72
67822;BMP180;54434;50.096;20.082;2023-12-29T05:31:48;98605.80;;;2.90
67822;BMP180;54434;50.096;20.082;2023-12-29T05:34:25;98604.80;;;3.00
67822;BMP180;54434;50.096;20.082;2023-12-29T05:37:08;98605.00;;;3.10
67822;BMP180;54434;50.096;20.082;2023-12-29T05:39:52;98606.60;;;3.26
67822;BMP180;54434;50.096;20.082;2023-12-29T05:42:29;98604.40;;;3.40
67822;BMP180;54434;50.096;20.082;2023-12-29T05:45:09;98597.60;;;3.44
67822;BMP180;54434;50.096;20.082;2023-12-29T05:47:45;98597.40;;;3.50
67822;BMP180;54434;50.096;20.082;2023-12-29T05:50:22;98602.40;;;3.60
67822;BMP180;54434;50.096;20.082;2023-12-29T05:52:59;98608.60;;;3.60
67822;BMP180;54434;50.096;20.082;2023-12-29T05:55:36;98618.80;;;3.70
67822;BMP180;54434;50.096;20.082;2023-12-29T05:58:13;98625.60;;;3.70
67822;BMP180;54434;50.096;20.082;2023-12-29T06:00:50;98629.60;;;3.80
67822;BMP180;54434;50.096;20.082;2023-12-29T06:03:28;98626.20;;;3.90
67822;BMP180;54434;50.096;20.082;2023-12-29T06:06:05;98623.80;;;4.00
67822;BMP180;54434;50.096;20.082;2023-12-29T06:08:42;98616.20;;;4.04
67822;BMP180;54434;50.096;20.082;2023-12-29T06:11:20;98618.00;;;4.10
67822;BMP180;54434;50.096;20.082;2023-12-29T06:13:57;98623.40;;;4.20
67822;BMP180;54434;50.096;20.082;2023-12-29T06:16:34;98614.00;;;4.30
67822;BMP180;54434;50.096;20.082;2023-12-29T06:19:11;98616.80;;;4.30
67822;BMP180;54434;50.096;20.082;2023-12-29T06:21:48;98609.00;;;4.40
67822;BMP180;54434;50.096;20.082;2023-12-29T06:24:25;98615.20;;;4.46
67822;BMP180;54434;50.096;20.082;2023-12-29T06:27:01;98607.60;;;4.50
67822;BMP180;54434;50.096;20.082;2023-12-29T06:29:40;98608.20;;;4.60
67822;BMP180;54434;50.096;20.082;2023-12-29T06:32:17;98609.40;;;4.60
67822;BMP180;54434;50.096;20.082;2023-12-29T06:34:54;98612.40;;;4.70
67822;BMP180;54434;50.096;20.082;2023-12-29T06:37:31;98610.40;;;4.70
67822;BMP180;54434;50.096;20.082;2023-12-29T06:40:10;98604.40;;;4.80
67822;BMP180;54434;50.096;20.082;2023-12-29T06:42:47;98604.80;;;4.80
67822;BMP180;54434;50.096;20.082;2023-12-29T06:45:24;98604.60;;;4.80
67822;BMP180;54434;50.096;20.082;2023-12-29T06:48:00;98611.80;;;4.90
67822;BMP180;54434;50.096;20.082;2023-12-29T06:50:39;98607.60;;;4.90
67822;BMP180;54434;50.096;20.082;2023-12-29T06:53:16;98615.80;;;5.00
67822;BMP180;54434;50.096;20.082;2023-12-29T06:55:52;98621.80;;;5.00
67822;BMP180;54434;50.096;20.082;2023-12-29T06:58:30;98625.20;;;5.02
67822;BMP180;54434;50.096;20.082;2023-12-29T07:01:07;98624.40;;;5.10
67822;BMP180;54434;50.096;20.082;2023-12-29T07:03:44;98624.40;;;5.10
67822;BMP180;54434;50.096;20.082;2023-12-29T07:06:21;98628.40;;;5.20
67822;BMP180;54434;50.096;20.082;2023-12-29T07:08:58;98632.40;;;5.20
67822;BMP180;54434;50.096;20.082;2023-12-29T07:11:36;98634.80;;;5.30
67822;BMP180;54434;50.096;20.082;2023-12-29T07:14:13;98637.40;;;5.30
67822;BMP180;54434;50.096;20.082;2023-12-29T07:16:50;98625.20;;;5.40
67822;BMP180;54434;50.096;20.082;2023-12-29T07:19:27;98620.00;;;5.50
67822;BMP180;54434;50.096;20.082;2023-12-29T07:22:11;98618.40;;;5.60
67822;BMP180;54434;50.096;20.082;2023-12-29T07:24:48;98605.60;;;5.60
67822;BMP180;54434;50.096;20.082;2023-12-29T07:27:25;98600.40;;;5.70
67822;BMP180;54434;50.096;20.082;2023-12-29T07:30:02;98598.20;;;5.80
67822;BMP180;54434;50.096;20.082;2023-12-29T07:32:39;98597.80;;;5.90
67822;BMP180;54434;50.096;20.082;2023-12-29T07:35:16;98604.00;;;6.00
67822;BMP180;54434;50.096;20.082;2023-12-29T07:37:58;98614.00;;;6.10
67822;BMP180;54434;50.096;20.082;2023-12-29T07:40:35;98618.60;;;6.10
67822;BMP180;54434;50.096;20.082;2023-12-29T07:43:12;98617.40;;;6.20
67822;BMP180;54434;50.096;20.082;2023-12-29T07:45:51;98620.40;;;6.30
67822;BMP180;54434;50.096;20.082;2023-12-29T07:48:37;98620.00;;;6.40
67822;BMP180;54434;50.096;20.082;2023-12-29T07:51:15;98611.20;;;6.50
67822;BMP180;54434;50.096;20.082;2023-12-29T07:53:51;98609.20;;;6.60
67822;BMP180;54434;50.096;20.082;2023-12-29T07:56:28;98597.80;;;6.76
67822;BMP180;54434;50.096;20.082;2023-12-29T07:59:04;98589.60;;;6.90
67822;BMP180;54434;50.096;20.082;2023-12-29T08:01:41;98598.40;;;7.00
67822;BMP180;54434;50.096;20.082;2023-12-29T08:04:18;98609.80;;;7.10
67822;BMP180;54434;50.096;20.082;2023-12-29T08:06:54;98615.00;;;7.26
67822;BMP180;54434;50.096;20.082;2023-12-29T08:09:31;98624.80;;;7.50
67822;BMP180;54434;50.096;20.082;2023-12-29T08:12:09;98628.40;;;7.70
67822;BMP180;54434;50.096;20.082;2023-12-29T08:14:46;98627.40;;;7.90
67822;BMP180;54434;50.096;20.082;2023-12-29T08:17:22;98616.20;;;8.18
67822;BMP180;54434;50.096;20.082;2023-12-29T08:19:58;98610.40;;;8.40
67822;BMP180;54434;50.096;20.082;2023-12-29T08:22:35;98612.60;;;8.60
67822;BMP180;54434;50.096;20.082;2023-12-29T08:25:13;98617.60;;;8.90
67822;BMP180;54434;50.096;20.082;2023-12-29T08:27:51;98617.20;;;9.08
67822;BMP180;54434;50.096;20.082;2023-12-29T08:30:28;98616.00;;;9.28
67822;BMP180;54434;50.096;20.082;2023-12-29T08:33:04;98616.00;;;9.50
67822;BMP180;54434;50.096;20.082;2023-12-29T08:35:43;98617.20;;;9.70
67822;BMP180;54434;50.096;20.082;2023-12-29T08:38:21;98626.80;;;9.90
67822;BMP180;54434;50.096;20.082;2023-12-29T08:40:57;98633.20;;;10.10
67822;BMP180;54434;50.096;20.082;2023-12-29T08:43:34;98635.80;;;10.32
67822;BMP180;54434;50.096;20.082;2023-12-29T08:46:11;98644.20;;;10.58
67822;BMP180;54434;50.096;20.082;2023-12-29T08:48:48;98643.80;;;10.72
67822;BMP180;54434;50.096;20.082;2023-12-29T08:51:24;98643.00;;;10.90
67822;BMP180;54434;50.096;20.082;2023-12-29T08:54:01;98642.40;;;11.00
67822;BMP180;54434;50.096;20.082;2023-12-29T08:56:37;98642.60;;;11.10
67822;BMP180;54434;50.096;20.082;2023-12-29T08:59:14;98644.00;;;11.20
67822;BMP180;54434;50.096;20.082;2023-12-29T09:01:50;98641.20;;;11.40
67822;BMP180;54434;50.096;20.082;2023-12-29T09:04:27;98646.40;;;11.50
67822;BMP180;54434;50.096;20.082;2023-12-29T09:07:04;98647.40;;;11.62
67822;BMP180;54434;50.096;20.082;2023-12-29T09:09:41;98644.60;;;11.80
67822;BMP180;54434;50.096;20.082;2023-12-29T09:12:18;98646.00;;;11.90
67822;BMP180;54434;50.096;20.082;2023-12-29T09:14:54;98646.80;;;11.98
67822;BMP180;54434;50.096;20.082;2023-12-29T09:17:31;98647.40;;;12.00
67822;BMP180;54434;50.096;20.082;2023-12-29T09:20:10;98647.20;;;12.10
67822;BMP180;54434;50.096;20.082;2023-12-29T09:22:47;98640.80;;;12.16
67822;BMP180;54434;50.096;20.082;2023-12-29T09:25:23;98633.60;;;12.10
67822;BMP180;54434;50.096;20.082;2023-12-29T09:28:00;98631.60;;;12.10
67822;BMP180;54434;50.096;20.082;2023-12-29T09:30:37;98627.80;;;12.00
67822;BMP180;54434;50.096;20.082;2023-12-29T09:33:14;98623.40;;;11.90
67822;BMP180;54434;50.096;20.082;2023-12-29T09:35:50;98622.00;;;11.90
67822;BMP180;54434;50.096;20.082;2023-12-29T09:38:26;98630.40;;;11.80
67822;BMP180;54434;50.096;20.082;2023-12-29T09:41:11;98624.20;;;11.80
67822;BMP180;54434;50.096;20.082;2023-12-29T09:43:49;98623.20;;;11.70
67822;BMP180;54434;50.096;20.082;2023-12-29T09:46:27;98615.60;;;11.70
67822;BMP180;54434;50.096;20.082;2023-12-29T09:49:08;98613.00;;;11.60
67822;BMP180;54434;50.096;20.082;2023-12-29T09:51:46;98611.20;;;11.58
67822;BMP180;54434;50.096;20.082;2023-12-29T09:54:23;98609.40;;;11.50
67822;BMP180;54434;50.096;20.082;2023-12-29T09:57:00;98608.00;;;11.50
67822;BMP180;54434;50.096;20.082;2023-12-29T09:59:39;98608.80;;;11.54
67822;BMP180;54434;50.096;20.082;2023-12-29T10:02:17;98604.00;;;11.50
67822;BMP180;54434;50.096;20.082;2023-12-29T10:04:54;98602.60;;;11.50
67822;BMP180;54434;50.096;20.082;2023-12-29T10:07:35;98600.60;;;11.50
67822;BMP180;54434;50.096;20.082;2023-12-29T10:10:17;98602.40;;;11.40
67822;BMP180;54434;50.096;20.082;2023-12-29T10:12:55;98596.80;;;11.40
67822;BMP180;54434;50.096;20.082;2023-12-29T10:15:45;98594.80;;;11.40
67822;BMP180;54434;50.096;20.082;2023-12-29T10:18:55;98587.80;;;11.42
67822;BMP180;54434;50.096;20.082;2023-12-29T10:21:42;98582.00;;;11.48
67822;BMP180;54434;50.096;20.082;2023-12-29T10:24:22;98578.00;;;11.40
67822;BMP180;54434;50.096;20.082;2023-12-29T10:26:59;98574.80;;;11.40
67822;BMP180;54434;50.096;20.082;2023-12-29T10:29:35;98574.20;;;11.40
67822;BMP180;54434;50.096;20.082;2023-12-29T10:32:13;98571.80;;;11.40
67822;BMP180;54434;50.096;20.082;2023-12-29T10:34:49;98572.00;;;11.40
67822;BMP180;54434;50.096;20.082;2023-12-29T10:37:28;98569.60;;;11.40
67822;BMP180;54434;50.096;20.082;2023-12-29T10:40:07;98567.80;;;11.50
67822;BMP180;54434;50.096;20.082;2023-12-29T10:42:55;98557.40;;;11.50
67822;BMP180;54434;50.096;20.082;2023-12-29T10:45:33;98559.40;;;11.50
67822;BMP180;54434;50.096;20.082;2023-12-29T10:48:11;98562.00;;;11.50
67822;BMP180;54434;50.096;20.082;2023-12-29T10:50:50;98563.00;;;11.60
67822;BMP180;54434;50.096;20.082;2023-12-29T10:53:27;98550.20;;;11.60
67822;BMP180;54434;50.096;20.082;2023-12-29T10:56:04;98554.20;;;11.60
67822;BMP180;54434;50.096;20.082;2023-12-29T10:58:40;98546.40;;;11.60
67822;BMP180;54434;50.096;20.082;2023-12-29T11:01:19;98547.80;;;11.60
67822;BMP180;54434;50.096;20.082;2023-12-29T11:04:05;98546.00;;;11.70
67822;BMP180;54434;50.096;20.082;2023-12-29T11:06:48;98534.80;;;11.70
67822;BMP180;54434;50.096;20.082;2023-12-29T11:09:34;98542.00;;;11.70
67822;BMP180;54434;50.096;20.082;2023-12-29T11:12:13;98531.60;;;11.72
67822;BMP180;54434;50.096;20.082;2023-12-29T11:14:50;98531.80;;;11.78
67822;BMP180;54434;50.096;20.082;2023-12-29T11:17:30;98530.00;;;11.80
67822;BMP180;54434;50.096;20.082;2023-12-29T11:20:11;98531.40;;;11.80
67822;BMP180;54434;50.096;20.082;2023-12-29T11:23:04;98537.20;;;11.80
67822;BMP180;54434;50.096;20.082;2023-12-29T11:25:45;98540.20;;;11.80
67822;BMP180;54434;50.096;20.082;2023-12-29T11:28:23;98544.00;;;11.80
67822;BMP180;54434;50.096;20.082;2023-12-29T11:31:01;98534.60;;;11.80
67822;BMP180;54434;50.096;20.082;2023-12-29T11:33:46;98537.20;;;11.80
67822;BMP180;54434;50.096;20.082;2023-12-29T11:36:32;98537.40;;;11.80
67822;BMP180;54434;50.096;20.082;2023-12-29T11:39:23;98522.20;;;11.80
67822;BMP180;54434;50.096;20.082;2023-12-29T11:42:12;98527.00;;;11.80
67822;BMP180;54434;50.096;20.082;2023-12-29T11:44:50;98514.60;;;11.80
67822;BMP180;54434;50.096;20.082;2023-12-29T11:47:40;98519.00;;;11.78
67822;BMP180;54434;50.096;20.082;2023-12-29T11:50:28;98518.40;;;11.70
67822;BMP180;54434;50.096;20.082;2023-12-29T11:53:05;98519.00;;;11.70
67822;BMP180;54434;50.096;20.082;2023-12-29T11:55:42;98517.60;;;11.70
67822;BMP180;54434;50.096;20.082;2023-12-29T11:58:30;98524.00;;;11.70
67822;BMP180;54434;50.096;20.082;2023-12-29T12:01:06;98520.80;;;11.70
67822;BMP180;54434;50.096;20.082;2023-12-29T12:03:43;98522.20;;;11.70
67822;BMP180;54434;50.096;20.082;2023-12-29T12:06:39;98528.60;;;11.70
67822;BMP180;54434;50.096;20.082;2023-12-29T12:09:25;98523.60;;;11.62
67822;BMP180;54434;50.096;20.082;2023-12-29T12:12:02;98526.20;;;11.60
67822;BMP180;54434;50.096;20.082;2023-12-29T12:14:54;98521.80;;;11.54
67822;BMP180;54434;50.096;20.082;2023-12-29T12:17:37;98531.60;;;11.50
67822;BMP180;54434;50.096;20.082;2023-12-29T12:20:16;98525.60;;;11.50
67822;BMP180;54434;50.096;20.082;2023-12-29T12:22:58;98526.40;;;11.40
67822;BMP180;54434;50.096;20.082;2023-12-29T12:25:35;98522.00;;;11.40
67822;BMP180;54434;50.096;20.082;2023-12-29T12:28:17;98516.00;;;11.36
67822;BMP180;54434;50.096;20.082;2023-12-29T12:31:06;98518.80;;;11.30
67822;BMP180;54434;50.096;20.082;2023-12-29T12:33:54;98517.20;;;11.30
67822;BMP180;54434;50.096;20.082;2023-12-29T12:36:31;98523.80;;;11.30
67822;BMP180;54434;50.096;20.082;2023-12-29T12:39:08;98522.40;;;11.20
67822;BMP180;54434;50.096;20.082;2023-12-29T12:41:44;98519.80;;;11.20
67822;BMP180;54434;50.096;20.082;2023-12-29T12:44:21;98526.40;;;11.20
67822;BMP180;54434;50.096;20.082;2023-12-29T12:47:08;98527.20;;;11.10
67822;BMP180;54434;50.096;20.082;2023-12-29T12:49:46;98522.40;;;11.10
67822;BMP180;54434;50.096;20.082;2023-12-29T12:52:23;98528.60;;;11.00
67822;BMP180;54434;50.096;20.082;2023-12-29T12:55:00;98529.00;;;11.00
67822;BMP180;54434;50.096;20.082;2023-12-29T12:57:38;98535.20;;;10.90
67822;BMP180;54434;50.096;20.082;2023-12-29T13:00:17;98528.40;;;10.90
67822;BMP180;54434;50.096;20.082;2023-12-29T13:02:57;98535.40;;;10.90
67822;BMP180;54434;50.096;20.082;2023-12-29T13:05:33;98527.40;;;10.80
67822;BMP180;54434;50.096;20.082;2023-12-29T13:08:13;98526.60;;;10.80
67822;BMP180;54434;50.096;20.082;2023-12-29T13:11:00;98527.60;;;10.80
67822;BMP180;54434;50.096;20.082;2023-12-29T13:13:44;98530.20;;;10.70
67822;BMP180;54434;50.096;20.082;2023-12-29T13:16:30;98531.60;;;10.70
67822;BMP180;54434;50.096;20.082;2023-12-29T13:22:09;98527.00;;;10.70
67822;BMP180;54434;50.096;20.082;2023-12-29T13:24:48;98527.20;;;10.70
67822;BMP180;54434;50.096;20.082;2023-12-29T13:27:25;98530.00;;;10.70
67822;BMP180;54434;50.096;20.082;2023-12-29T13:30:03;98531.40;;;10.66
67822;BMP180;54434;50.096;20.082;2023-12-29T13:32:40;98521.60;;;10.62
67822;BMP180;54434;50.096;20.082;2023-12-29T13:35:31;98518.00;;;10.60
67822;BMP180;54434;50.096;20.082;2023-12-29T13:38:19;98514.80;;;10.60
67822;BMP180;54434;50.096;20.082;2023-12-29T13:41:04;98515.40;;;10.60
67822;BMP180;54434;50.096;20.082;2023-12-29T13:43:44;98518.00;;;10.54
67822;BMP180;54434;50.096;20.082;2023-12-29T13:46:22;98522.20;;;10.50
67822;BMP180;54434;50.096;20.082;2023-12-29T13:48:59;98526.80;;;10.50
67822;BMP180;54434;50.096;20.082;2023-12-29T13:51:37;98525.00;;;10.50
67822;BMP180;54434;50.096;20.082;2023-12-29T13:54:14;98522.60;;;10.40
67822;BMP180;54434;50.096;20.082;2023-12-29T13:56:57;98528.20;;;10.40
67822;BMP180;54434;50.096;20.082;2023-12-29T13:59:37;98521.00;;;10.40
67822;BMP180;54434;50.096;20.082;2023-12-29T14:02:36;98513.60;;;10.38
67822;BMP180;54434;50.096;20.082;2023-12-29T14:05:35;98517.80;;;10.30
67822;BMP180;54434;50.096;20.082;2023-12-29T14:08:23;98520.00;;;10.30
67822;BMP180;54434;50.096;20.082;2023-12-29T14:10:59;98530.60;;;10.20
67822;BMP180;54434;50.096;20.082;2023-12-29T14:13:39;98524.80;;;10.20
67822;BMP180;54434;50.096;20.082;2023-12-29T14:16:17;98517.00;;;10.10
67822;BMP180;54434;50.096;20.082;2023-12-29T14:18:59;98514.60;;;10.10
67822;BMP180;54434;50.096;20.082;2023-12-29T14:21:39;98514.60;;;10.10
67822;BMP180;54434;50.096;20.082;2023-12-29T14:24:17;98522.20;;;10.00
67822;BMP180;54434;50.096;20.082;2023-12-29T14:27:03;98526.40;;;10.00
67822;BMP180;54434;50.096;20.082;2023-12-29T14:29:46;98530.80;;;9.90
67822;BMP180;54434;50.096;20.082;2023-12-29T14:32:22;98538.20;;;9.90
67822;BMP180;54434;50.096;20.082;2023-12-29T14:34:59;98535.60;;;9.82
67822;BMP180;54434;50.096;20.082;2023-12-29T14:37:36;98538.00;;;9.80
67822;BMP180;54434;50.096;20.082;2023-12-29T14:40:15;98543.60;;;9.80
67822;BMP180;54434;50.096;20.082;2023-12-29T14:42:51;98537.40;;;9.70
67822;BMP180;54434;50.096;20.082;2023-12-29T14:45:28;98542.80;;;9.70
67822;BMP180;54434;50.096;20.082;2023-12-29T14:48:06;98539.20;;;9.62
67822;BMP180;54434;50.096;20.082;2023-12-29T14:50:43;98541.40;;;9.60
67822;BMP180;54434;50.096;20.082;2023-12-29T14:53:21;98548.80;;;9.50
67822;BMP180;54434;50.096;20.082;2023-12-29T14:55:57;98558.20;;;9.50
67822;BMP180;54434;50.096;20.082;2023-12-29T14:58:34;98554.00;;;9.40
67822;BMP180;54434;50.096;20.082;2023-12-29T15:01:11;98555.80;;;9.40
67822;BMP180;54434;50.096;20.082;2023-12-29T15:03:48;98562.60;;;9.40
67822;BMP180;54434;50.096;20.082;2023-12-29T15:06:25;98569.20;;;9.30
67822;BMP180;54434;50.096;20.082;2023-12-29T15:09:01;98564.60;;;9.22
67822;BMP180;54434;50.096;20.082;2023-12-29T15:11:41;98563.60;;;9.20